Time;durP1;ratioP1;P1;durP2;ratioP2;P2;SDS_P1;SDS_P2;PMS_P1;PMS_P2;Temp;Humidity;BMP_temperature;BMP_pressure;BME280_temperature;BME280_humidity;BME280_pressure;Samples;Min_cycle;Max_cycle;Signal;HPM_P1;HPM_P2
2021/06/17 00:01:08;;;;;;;8.25;4.75;;;17.10;83.50;;;;;;6122233;23;20427;-69
2021/06/17 00:03:37;;;;;;;5.85;4.07;;;17.10;83.50;;;;;;6121168;23;20013;-69
2021/06/17 00:06:03;;;;;;;5.43;4.70;;;17.10;83.60;;;;;;6121948;23;20049;-69
2021/06/17 00:08:32;;;;;;;5.50;3.95;;;17.10;83.60;;;;;;6122705;23;20009;-69
2021/06/17 00:10:59;;;;;;;5.40;4.15;;;17.10;83.50;;;;;;6121930;23;19998;-69
2021/06/17 00:13:33;;;;;;;7.60;4.38;;;17.10;83.60;;;;;;6121623;23;20012;-69
2021/06/17 00:16:01;;;;;;;4.80;3.90;;;17.10;83.60;;;;;;6123106;23;20426;-69
2021/06/17 00:18:29;;;;;;;7.88;4.65;;;17.10;83.60;;;;;;6121393;23;20138;-69
2021/06/17 00:20:55;;;;;;;4.55;4.15;;;17.10;83.50;;;;;;6123086;23;20045;-69
2021/06/17 00:23:23;;;;;;;4.50;4.03;;;17.10;83.50;;;;;;6119590;23;20088;-69
2021/06/17 00:25:50;;;;;;;6.32;4.72;;;17.00;83.40;;;;;;6122715;23;20013;-69
2021/06/17 00:28:17;;;;;;;6.32;4.85;;;17.00;83.50;;;;;;6122014;23;20073;-69
2021/06/17 00:30:43;;;;;;;6.57;4.50;;;17.00;83.50;;;;;;6122018;23;20005;-69
2021/06/17 00:33:10;;;;;;;5.55;4.78;;;17.00;83.50;;;;;;6122737;23;20008;-69
2021/06/17 00:35:37;;;;;;;4.95;4.47;;;17.00;83.60;;;;;;6122084;23;20024;-69
2021/06/17 00:38:04;;;;;;;5.97;4.28;;;17.00;83.60;;;;;;6122663;23;20081;-69
2021/06/17 00:40:33;;;;;;;5.72;4.25;;;17.00;83.60;;;;;;6121193;23;19994;-69
2021/06/17 00:43:00;;;;;;;5.13;4.63;;;17.00;83.60;;;;;;6122582;23;20401;-69
2021/06/17 00:45:42;;;;;;;7.18;4.95;;;17.00;83.60;;;;;;6121551;23;20009;-69
2021/06/17 00:48:10;;;;;;;6.70;4.85;;;17.00;83.60;;;;;;6121857;23;20081;-69
2021/06/17 00:50:41;;;;;;;7.10;4.70;;;17.00;83.50;;;;;;6122989;23;20560;-69
2021/06/17 00:53:13;;;;;;;7.55;5.28;;;17.00;83.50;;;;;;6121769;23;20009;-69
2021/06/17 00:55:45;;;;;;;7.20;4.28;;;17.00;83.50;;;;;;6122888;23;20489;-69
2021/06/17 00:58:12;;;;;;;5.63;4.43;;;17.00;83.50;;;;;;6121525;23;20411;-69
2021/06/17 01:00:41;;;;;;;5.53;4.00;;;17.00;83.50;;;;;;6122287;23;20009;-69
2021/06/17 01:03:08;;;;;;;5.13;3.97;;;17.00;83.40;;;;;;6121916;23;20485;-69
2021/06/17 01:05:34;;;;;;;6.15;4.15;;;17.00;83.40;;;;;;6121552;23;19990;-70
2021/06/17 01:08:06;;;;;;;6.60;3.85;;;16.90;83.40;;;;;;6122188;23;20006;-69
2021/06/17 01:10:52;;;;;;;4.97;3.92;;;17.00;83.40;;;;;;6120705;23;20002;-69
2021/06/17 01:13:31;;;;;;;5.85;3.92;;;16.90;83.30;;;;;;6122343;23;20028;-69
2021/06/17 01:16:17;;;;;;;4.47;3.55;;;17.00;83.40;;;;;;6121609;23;20006;-70
2021/06/17 01:18:53;;;;;;;4.68;4.03;;;16.90;83.30;;;;;;6121444;23;20008;-70
2021/06/17 01:21:32;;;;;;;5.07;3.75;;;16.90;83.20;;;;;;6121865;23;20492;-69
2021/06/17 01:24:23;;;;;;;5.30;3.80;;;16.90;83.10;;;;;;6120568;23;20006;-70
2021/06/17 01:27:10;;;;;;;4.28;3.70;;;16.90;83.00;;;;;;6121837;23;20334;-70
2021/06/17 01:29:38;;;;;;;5.72;3.92;;;16.90;82.90;;;;;;6122209;23;20034;-69
2021/06/17 01:32:05;;;;;;;5.00;3.75;;;16.90;83.00;;;;;;6121485;23;19994;-70
2021/06/17 01:34:32;;;;;;;6.72;4.40;;;16.90;83.00;;;;;;6121940;23;20002;-69
2021/06/17 01:37:06;;;;;;;5.70;4.40;;;16.90;83.00;;;;;;6120872;23;20077;-69
2021/06/17 01:39:36;;;;;;;6.18;4.47;;;16.90;83.00;;;;;;6122040;23;20002;-69
2021/06/17 01:42:06;;;;;;;5.15;3.78;;;16.90;83.10;;;;;;6120222;23;20374;-70
2021/06/17 01:44:34;;;;;;;5.10;4.03;;;16.90;83.10;;;;;;6121395;23;20002;-69
2021/06/17 01:47:03;;;;;;;6.00;4.07;;;16.90;83.00;;;;;;6122030;23;20006;-70
2021/06/17 01:49:31;;;;;;;4.63;3.63;;;16.90;83.00;;;;;;6121026;23;20005;-70
2021/06/17 01:51:59;;;;;;;7.15;4.82;;;16.80;82.90;;;;;;6122161;23;20014;-69
2021/06/17 01:54:27;;;;;;;3.78;3.38;;;16.80;82.90;;;;;;6120470;23;20073;-71
2021/06/17 01:56:57;;;;;;;6.57;3.85;;;16.90;83.00;;;;;;6121696;23;19998;-69
2021/06/17 01:59:24;;;;;;;4.78;3.80;;;16.80;82.80;;;;;;6121191;23;20013;-69
2021/06/17 02:01:56;;;;;;;4.35;3.33;;;16.80;82.80;;;;;;6120991;23;20014;-69
2021/06/17 02:04:23;;;;;;;5.13;3.53;;;16.80;82.90;;;;;;6121860;23;20024;-69
2021/06/17 02:06:51;;;;;;;4.22;3.72;;;16.80;83.00;;;;;;6120574;23;20013;-69
2021/06/17 02:09:18;;;;;;;5.78;3.92;;;16.80;83.00;;;;;;6121693;23;20061;-69
2021/06/17 02:11:45;;;;;;;6.63;3.35;;;16.80;83.10;;;;;;6120794;23;20033;-69
2021/06/17 02:14:12;;;;;;;4.80;3.63;;;16.80;83.20;;;;;;6121502;23;20580;-69
2021/06/17 02:16:46;;;;;;;4.55;3.35;;;16.90;83.20;;;;;;6120875;23;19998;-69
2021/06/17 02:19:16;;;;;;;7.28;4.63;;;16.80;83.30;;;;;;6120962;23;20446;-70
2021/06/17 02:21:45;;;;;;;4.53;3.30;;;16.80;83.30;;;;;;6121535;23;20057;-69
2021/06/17 02:24:12;;;;;;;4.78;3.53;;;16.80;83.40;;;;;;6120241;23;20037;-69
2021/06/17 02:26:41;;;;;;;4.72;4.03;;;16.80;83.40;;;;;;6121658;23;20001;-69
2021/06/17 02:29:12;;;;;;;4.20;3.80;;;16.80;83.40;;;;;;6120391;23;19998;-69
2021/06/17 02:31:45;;;;;;;5.97;3.47;;;16.80;83.40;;;;;;6121561;23;20006;-69
2021/06/17 02:34:12;;;;;;;6.75;4.35;;;16.80;83.50;;;;;;6121179;23;20069;-70
2021/06/17 02:36:41;;;;;;;4.25;3.85;;;16.80;83.50;;;;;;6120800;23;20611;-69
2021/06/17 02:39:09;;;;;;;6.13;4.22;;;16.80;83.50;;;;;;6121489;23;20002;-70
2021/06/17 02:41:40;;;;;;;5.68;4.40;;;16.80;83.60;;;;;;6120249;23;20020;-69
2021/06/17 02:44:07;;;;;;;4.22;3.35;;;16.80;83.60;;;;;;6121556;23;20015;-70
2021/06/17 02:46:35;;;;;;;5.43;4.35;;;16.80;83.60;;;;;;6120447;23;20389;-69
2021/06/17 02:49:01;;;;;;;5.15;3.97;;;16.80;83.60;;;;;;6121424;23;20149;-69
2021/06/17 02:51:27;;;;;;;6.00;3.80;;;16.80;83.70;;;;;;6121012;23;20322;-69
2021/06/17 02:53:54;;;;;;;5.88;3.80;;;16.80;83.60;;;;;;6120672;23;20005;-70
2021/06/17 02:56:42;;;;;;;5.28;3.70;;;16.80;84.20;;;;;;6121456;23;19997;-69
2021/06/17 02:59:16;;;;;;;4.20;3.80;;;16.80;83.40;;;;;;6120132;23;20307;-69
2021/06/17 03:02:12;;;;;;;5.57;3.40;;;16.70;83.30;;;;;;6121278;23;20317;-69
2021/06/17 03:04:51;;;;;;;4.22;3.17;;;16.70;83.20;;;;;;6121460;23;20330;-70
2021/06/17 03:07:23;;;;;;;4.47;3.85;;;16.70;83.20;;;;;;6120210;23;20112;-70
2021/06/17 03:10:03;;;;;;;6.57;3.90;;;16.80;83.20;;;;;;6121102;23;20022;-70
2021/06/17 03:12:30;;;;;;;5.88;3.80;;;16.70;83.00;;;;;;6120022;23;20323;-69
2021/06/17 03:14:59;;;;;;;4.63;3.30;;;16.70;83.00;;;;;;6121245;23;20002;-70
2021/06/17 03:17:27;;;;;;;6.07;3.67;;;16.60;83.70;;;;;;6121226;23;20029;-70
2021/06/17 03:19:56;;;;;;;5.40;4.75;;;16.60;83.00;;;;;;6120482;23;20098;-70
2021/06/17 03:22:26;;;;;;;3.75;3.33;;;16.60;83.10;;;;;;6121619;23;20014;-70
2021/06/17 03:24:58;;;;;;;4.53;3.38;;;16.60;83.20;;;;;;6119623;23;20005;-70
2021/06/17 03:27:26;;;;;;;5.88;4.25;;;16.60;83.20;;;;;;6122051;23;20195;-69
2021/06/17 03:29:54;;;;;;;6.45;3.65;;;16.60;83.30;;;;;;6118304;23;20002;-70
2021/06/17 03:32:23;;;;;;;8.32;6.95;;;16.60;83.40;;;;;;6121130;23;19998;-70
2021/06/17 03:34:51;;;;;;;9.85;7.05;;;16.60;83.40;;;;;;6120812;23;20002;-70
2021/06/17 03:37:20;;;;;;;11.77;6.80;;;16.60;83.50;;;;;;6120280;23;20057;-70
2021/06/17 03:39:51;;;;;;;8.13;5.80;;;16.60;83.60;;;;;;6121131;23;20006;-69
2021/06/17 03:42:19;;;;;;;6.85;5.82;;;16.60;83.60;;;;;;6120077;23;20123;-70
2021/06/17 03:44:48;;;;;;;6.60;4.70;;;16.60;83.60;;;;;;6121705;23;19994;-70
2021/06/17 03:47:16;;;;;;;9.68;4.63;;;16.60;83.70;;;;;;6120909;23;20031;-69
2021/06/17 03:49:44;;;;;;;8.23;4.78;;;16.60;83.70;;;;;;6121395;23;20002;-75
2021/06/17 03:52:14;;;;;;;7.25;4.70;;;16.60;83.70;;;;;;6120458;23;20505;-71
2021/06/17 03:54:43;;;;;;;4.45;3.65;;;16.60;83.60;;;;;;6120572;23;20010;-70
2021/06/17 03:57:10;;;;;;;7.22;4.30;;;16.60;83.50;;;;;;6121470;23;20021;-69
2021/06/17 03:59:42;;;;;;;5.75;4.53;;;16.60;83.50;;;;;;6120861;23;20002;-70
2021/06/17 04:02:10;;;;;;;5.55;4.38;;;16.60;83.40;;;;;;6121624;23;20020;-69
2021/06/17 04:04:37;;;;;;;9.73;4.50;;;16.50;83.30;;;;;;6121084;23;20056;-70
2021/06/17 04:07:09;;;;;;;7.35;3.92;;;16.50;83.30;;;;;;6122768;23;20077;-68
2021/06/17 04:09:38;;;;;;;28.40;18.00;;;16.50;83.40;;;;;;6123124;23;20018;-71
2021/06/17 04:12:11;;;;;;;29.08;16.73;;;16.50;83.40;;;;;;6122151;23;20029;-68
2021/06/17 04:14:42;;;;;;;22.48;14.00;;;16.50;83.60;;;;;;6123332;23;20014;-70
2021/06/17 04:17:12;;;;;;;22.55;13.73;;;16.50;84.40;;;;;;6121922;23;19998;-68
2021/06/17 04:19:42;;;;;;;21.88;11.48;;;16.50;83.80;;;;;;6123538;23;20002;-67
2021/06/17 04:22:10;;;;;;;14.65;8.88;;;16.50;83.80;;;;;;6122855;23;20028;-69
2021/06/17 04:24:41;;;;;;;9.43;6.82;;;16.50;84.00;;;;;;6123085;23;19998;-69
2021/06/17 04:27:11;;;;;;;10.27;7.30;;;16.50;84.00;;;;;;6123926;23;20005;-69
2021/06/17 04:29:40;;;;;;;12.70;6.32;;;16.50;84.00;;;;;;6122294;23;20005;-70
2021/06/17 04:32:14;;;;;;;11.32;6.40;;;16.50;84.10;;;;;;6123732;23;20061;-70
2021/06/17 04:38:43;;;;;;;7.45;4.90;;;16.50;84.10;;;;;;6122416;23;20065;-71
2021/06/17 04:41:38;;;;;;;8.52;5.55;;;16.50;84.20;;;;;;6122812;23;20014;-69
2021/06/17 04:44:06;;;;;;;7.85;6.28;;;16.50;84.20;;;;;;6121477;23;20002;-71
2021/06/17 04:46:34;;;;;;;10.85;5.93;;;16.50;84.20;;;;;;6121982;23;20077;-70
2021/06/17 04:49:02;;;;;;;7.07;5.43;;;16.60;84.20;;;;;;6123013;23;20006;-71
2021/06/17 04:51:33;;;;;;;7.00;6.30;;;16.50;84.20;;;;;;6120163;23;20018;-71
2021/06/17 04:53:59;;;;;;;6.63;5.50;;;16.60;84.20;;;;;;6121296;23;20108;-71
2021/06/17 04:57:05;;;;;;;6.40;5.80;;;16.50;84.10;;;;;;6121832;23;20006;-72
2021/06/17 04:59:32;;;;;;;10.57;5.93;;;16.50;84.00;;;;;;6121153;23;20006;-72
2021/06/17 05:02:38;;;;;;;8.70;7.00;;;16.50;83.90;;;;;;6122539;23;20010;-72
2021/06/17 05:05:24;;;;;;;10.45;9.35;;;16.50;83.70;;;;;;6121169;23;20084;-71
2021/06/17 05:11:17;;;;;;;22.02;17.13;;;16.50;83.60;;;;;;6105485;23;20012;-72
2021/06/17 05:14:23;;;;;;;19.38;16.88;;;16.50;83.60;;;;;;6121830;23;19998;-72
2021/06/17 05:17:30;;;;;;;26.98;16.30;;;16.40;83.50;;;;;;6121668;23;20016;-72
2021/06/17 05:20:36;;;;;;;18.73;14.27;;;16.40;83.50;;;;;;6120550;23;20422;-71
2021/06/17 05:23:03;;;;;;;18.10;12.15;;;16.40;83.60;;;;;;6122845;23;20010;-71
2021/06/17 05:26:09;;;;;;;13.88;11.27;;;16.40;83.60;;;;;;6121500;23;20303;-71
2021/06/17 05:28:36;;;;;;;11.43;9.70;;;16.40;83.70;;;;;;6121680;23;20002;-72
2021/06/17 05:31:42;;;;;;;11.85;8.75;;;16.40;83.80;;;;;;6120109;23;20085;-71
2021/06/17 05:34:48;;;;;;;11.43;8.02;;;16.40;83.80;;;;;;6120233;23;20012;-71
2021/06/17 05:37:18;;;;;;;13.45;8.85;;;16.40;83.80;;;;;;6119122;23;20002;-71
2021/06/17 05:40:25;;;;;;;10.60;8.07;;;16.40;84.00;;;;;;6118694;23;20064;-71
2021/06/17 05:43:31;;;;;;;11.88;7.88;;;16.40;84.00;;;;;;6120684;23;20014;-71
2021/06/17 05:45:58;;;;;;;12.93;8.98;;;16.40;84.10;;;;;;6122348;23;20002;-71
2021/06/17 05:49:04;;;;;;;18.63;9.48;;;16.40;84.10;;;;;;6120364;23;20006;-71
2021/06/17 05:51:31;;;;;;;22.48;12.95;;;16.40;84.20;;;;;;6121490;23;20006;-71
2021/06/17 05:54:37;;;;;;;22.83;12.70;;;16.40;84.20;;;;;;6122315;23;19998;-71
2021/06/17 05:57:16;;;;;;;29.88;15.43;;;16.40;84.30;;;;;;6121464;23;20002;-71
2021/06/17 05:59:42;;;;;;;38.80;17.27;;;16.40;84.40;;;;;;6120216;23;20315;-71
2021/06/17 06:02:48;;;;;;;36.20;17.58;;;16.40;84.40;;;;;;6121979;23;20021;-71
2021/06/17 06:05:54;;;;;;;31.55;15.10;;;16.40;84.40;;;;;;6121032;23;20008;-71
2021/06/17 06:09:01;;;;;;;30.08;15.73;;;16.40;84.50;;;;;;6121797;23;20394;-71
2021/06/17 06:12:09;;;;;;;26.88;13.55;;;16.50;84.60;;;;;;6121916;23;20001;-71
2021/06/17 06:15:15;;;;;;;21.98;12.70;;;16.40;84.60;;;;;;6121058;23;20006;-71
2021/06/17 06:18:09;;;;;;;22.60;11.80;;;16.50;84.80;;;;;;6120282;23;20105;-71
2021/06/17 06:21:15;;;;;;;22.73;11.23;;;16.40;84.80;;;;;;6121642;23;20006;-71
2021/06/17 06:24:21;;;;;;;17.75;10.95;;;16.40;84.80;;;;;;6122014;23;20463;-71
2021/06/17 06:27:27;;;;;;;18.73;12.75;;;16.50;85.00;;;;;;6120405;23;20005;-71
2021/06/17 06:29:55;;;;;;;22.70;14.75;;;16.50;85.00;;;;;;6121707;23;20013;-71
2021/06/17 06:33:02;;;;;;;17.10;11.95;;;16.50;85.00;;;;;;6121601;23;20061;-71
2021/06/17 06:36:08;;;;;;;18.30;12.35;;;16.50;85.10;;;;;;6121466;23;19998;-71
2021/06/17 06:38:34;;;;;;;20.95;11.75;;;16.50;85.10;;;;;;6121938;23;20017;-71
2021/06/17 06:41:41;;;;;;;22.02;12.35;;;16.50;85.20;;;;;;6121466;23;20006;-71
2021/06/17 06:44:17;;;;;;;18.05;11.98;;;16.60;85.30;;;;;;6120970;23;20081;-71
2021/06/17 06:46:44;;;;;;;21.77;13.20;;;16.60;85.40;;;;;;6120220;23;20045;-71
2021/06/17 06:49:11;;;;;;;21.40;12.85;;;16.60;85.40;;;;;;6121145;23;20008;-72
2021/06/17 06:52:17;;;;;;;16.80;11.38;;;16.60;85.50;;;;;;6121516;23;20057;-72
2021/06/17 06:54:44;;;;;;;14.23;9.02;;;16.60;85.50;;;;;;6121882;23;20002;-71
2021/06/17 06:57:50;;;;;;;12.93;9.80;;;16.60;85.40;;;;;;6117593;23;20009;-71
2021/06/17 07:00:18;;;;;;;13.73;9.30;;;16.60;85.30;;;;;;6121593;23;20038;-72
2021/06/17 07:02:45;;;;;;;14.60;8.82;;;16.60;85.30;;;;;;6121379;23;20454;-71
2021/06/17 07:05:51;;;;;;;12.95;9.15;;;16.60;85.30;;;;;;6120705;23;20002;-72
2021/06/17 07:08:57;;;;;;;15.95;9.15;;;16.60;85.20;;;;;;6121543;23;20028;-71
2021/06/17 07:12:03;;;;;;;11.13;7.72;;;16.70;85.20;;;;;;6121179;23;20002;-71
2021/06/17 07:15:09;;;;;;;13.15;8.80;;;16.60;85.10;;;;;;6120371;23;20405;-72
2021/06/17 07:17:36;;;;;;;16.10;10.73;;;16.70;85.10;;;;;;6121323;23;20012;-72
2021/06/17 07:20:03;;;;;;;15.73;9.48;;;16.70;85.10;;;;;;6121374;23;19998;-71
2021/06/17 07:23:09;;;;;;;17.23;10.40;;;16.70;85.10;;;;;;6120280;23;20053;-72
2021/06/17 07:25:38;;;;;;;20.95;9.52;;;16.70;85.00;;;;;;6122034;23;20006;-72
2021/06/17 07:28:45;;;;;;;19.52;9.60;;;16.70;85.00;;;;;;6120391;23;20010;-72
2021/06/17 07:31:51;;;;;;;15.52;9.90;;;16.70;85.00;;;;;;6121024;23;20073;-72
2021/06/17 07:34:57;;;;;;;15.10;9.75;;;16.70;85.00;;;;;;6121960;23;20022;-72
2021/06/17 07:37:23;;;;;;;16.30;9.00;;;16.70;84.90;;;;;;6120679;23;20010;-72
2021/06/17 07:39:50;;;;;;;13.45;9.52;;;16.70;84.90;;;;;;6121117;23;20002;-71
2021/06/17 07:42:56;;;;;;;14.27;9.27;;;16.70;84.90;;;;;;6121383;23;20081;-72
2021/06/17 07:45:26;;;;;;;12.48;8.93;;;16.70;84.90;;;;;;6120252;23;20002;-72
2021/06/17 07:47:52;;;;;;;14.25;8.00;;;16.70;84.90;;;;;;6123280;23;20037;-72
2021/06/17 07:50:58;;;;;;;11.77;7.68;;;16.70;84.80;;;;;;6122967;23;20073;-72
2021/06/17 07:53:25;;;;;;;14.43;8.00;;;16.70;84.80;;;;;;6119691;23;20099;-72
2021/06/17 07:56:31;;;;;;;9.65;7.18;;;16.70;84.70;;;;;;6123554;23;20006;-72
2021/06/17 07:59:37;;;;;;;9.38;6.90;;;16.70;84.70;;;;;;6123108;23;20012;-72
2021/06/17 08:02:43;;;;;;;11.27;6.15;;;16.70;84.70;;;;;;6122000;23;20017;-72
2021/06/17 08:05:50;;;;;;;8.68;6.22;;;16.70;84.60;;;;;;6123373;23;20070;-72
2021/06/17 08:08:56;;;;;;;9.18;7.00;;;16.80;84.70;;;;;;6122723;23;20006;-72
2021/06/17 08:11:23;;;;;;;6.55;5.28;;;16.80;84.70;;;;;;6122027;23;20004;-71
2021/06/17 08:14:28;;;;;;;9.98;5.90;;;16.80;84.70;;;;;;6123075;23;20449;-72
2021/06/17 08:16:57;;;;;;;7.07;4.97;;;16.80;84.70;;;;;;6121754;23;20009;-72
2021/06/17 08:20:03;;;;;;;7.30;5.72;;;16.80;84.70;;;;;;6120546;23;20056;-71
2021/06/17 08:22:29;;;;;;;9.25;5.55;;;16.80;84.60;;;;;;6122945;23;20540;-72
2021/06/17 08:24:55;;;;;;;10.77;5.50;;;16.80;84.60;;;;;;6123008;23;20009;-72
2021/06/17 08:28:04;;;;;;;7.80;4.93;;;16.90;84.70;;;;;;6121965;23;20010;-72
2021/06/17 08:31:10;;;;;;;8.77;5.18;;;16.90;84.70;;;;;;6123334;23;20427;-72
2021/06/17 08:34:16;;;;;;;5.55;4.80;;;16.90;84.70;;;;;;6122609;23;20009;-72
2021/06/17 08:37:22;;;;;;;8.40;5.13;;;17.00;84.70;;;;;;6121711;23;20005;-72
2021/06/17 08:40:30;;;;;;;4.68;3.47;;;17.00;84.60;;;;;;6123011;23;20033;-71
2021/06/17 08:43:36;;;;;;;5.90;3.85;;;17.10;84.70;;;;;;6121203;23;20093;-71
2021/06/17 08:46:42;;;;;;;5.35;3.13;;;17.10;84.60;;;;;;6122131;23;20058;-71
2021/06/17 08:49:27;;;;;;;4.78;3.88;;;17.20;84.50;;;;;;6122210;23;20009;-72
2021/06/17 08:52:33;;;;;;;3.83;3.42;;;17.20;84.50;;;;;;6121838;23;20029;-72
2021/06/17 08:55:49;;;;;;;5.88;3.03;;;17.20;84.50;;;;;;6122272;23;20006;-72
2021/06/17 08:58:16;;;;;;;4.30;3.65;;;17.30;84.50;;;;;;6112490;23;20065;-72
2021/06/17 09:01:28;;;;;;;4.22;2.60;;;17.20;84.40;;;;;;6120190;23;20013;-72
2021/06/17 09:04:40;;;;;;;7.07;3.05;;;17.20;84.30;;;;;;6122292;23;20077;-72
2021/06/17 09:07:30;;;;;;;4.80;2.95;;;17.20;84.20;;;;;;6121541;23;20010;-72
2021/06/17 09:10:39;;;;;;;5.25;3.30;;;17.20;84.30;;;;;;6122452;23;20056;-71
2021/06/17 09:13:49;;;;;;;4.85;2.97;;;17.30;84.40;;;;;;6122666;23;20026;-72
2021/06/17 09:17:03;;;;;;;3.38;2.53;;;17.30;84.30;;;;;;6121166;23;20010;-72
2021/06/17 09:19:46;;;;;;;7.85;3.28;;;17.30;84.30;;;;;;6121730;23;20473;-72
2021/06/17 09:22:52;;;;;;;6.22;3.40;;;17.30;84.30;;;;;;6120902;23;20447;-72
2021/06/17 09:25:20;;;;;;;5.80;3.17;;;17.30;84.30;;;;;;6122178;23;20008;-72
2021/06/17 09:27:48;;;;;;;5.38;3.65;;;17.30;84.30;;;;;;6121794;23;20014;-72
2021/06/17 09:30:55;;;;;;;7.15;3.20;;;17.30;84.30;;;;;;6122547;23;19998;-72
2021/06/17 09:34:01;;;;;;;4.47;3.60;;;17.30;84.30;;;;;;6121088;23;20327;-72
2021/06/17 09:37:07;;;;;;;5.72;3.33;;;17.30;84.30;;;;;;6120067;23;20006;-72
2021/06/17 09:40:13;;;;;;;4.90;4.47;;;17.30;84.20;;;;;;6122355;23;20409;-73
2021/06/17 09:42:39;;;;;;;6.88;4.05;;;17.30;84.20;;;;;;6120190;23;20025;-72
2021/06/17 09:45:45;;;;;;;4.07;3.60;;;17.30;84.20;;;;;;6119461;23;20398;-72
2021/06/17 09:48:31;;;;;;;4.82;4.03;;;17.30;84.20;;;;;;6120471;23;20006;-72
2021/06/17 09:51:41;;;;;;;6.20;3.97;;;17.30;84.20;;;;;;6121042;23;20002;-72
2021/06/17 09:54:36;;;;;;;6.28;4.75;;;17.30;84.20;;;;;;6121244;23;20350;-72
2021/06/17 09:57:20;;;;;;;6.65;4.25;;;17.30;84.20;;;;;;6122032;23;19998;-72
2021/06/17 10:00:26;;;;;;;6.50;4.18;;;17.30;84.10;;;;;;6119784;23;20013;-72
2021/06/17 10:02:52;;;;;;;7.55;4.00;;;17.30;84.20;;;;;;6120468;23;20080;-73
2021/06/17 10:05:26;;;;;;;5.35;4.20;;;17.40;84.30;;;;;;6120486;23;20009;-72
2021/06/17 10:07:53;;;;;;;6.72;5.03;;;17.30;84.20;;;;;;6118616;23;20090;-73
2021/06/17 10:10:22;;;;;;;8.43;4.55;;;17.40;84.40;;;;;;6122023;23;19998;-73
2021/06/17 10:13:28;;;;;;;4.90;3.92;;;17.40;84.30;;;;;;6121321;23;20002;-73
2021/06/17 10:15:55;;;;;;;7.38;4.93;;;17.40;84.30;;;;;;6121251;23;20076;-73
2021/06/17 10:19:01;;;;;;;4.43;3.65;;;17.40;84.40;;;;;;6121894;23;20006;-72
2021/06/17 10:21:29;;;;;;;6.13;4.80;;;17.40;84.50;;;;;;6121262;23;20089;-72
2021/06/17 10:24:35;;;;;;;4.93;4.03;;;17.50;84.60;;;;;;6120625;23;20006;-72
2021/06/17 10:27:50;;;;;;;6.07;5.50;;;17.50;84.60;;;;;;6122113;23;20013;-72
2021/06/17 10:30:40;;;;;;;7.95;4.38;;;17.50;84.70;;;;;;6119311;23;20010;-71
2021/06/17 10:33:46;;;;;;;5.00;4.18;;;17.60;84.90;;;;;;6121405;23;20065;-71
2021/06/17 10:36:25;;;;;;;5.50;3.67;;;17.60;85.00;;;;;;6122424;23;20069;-72
2021/06/17 10:39:10;;;;;;;6.28;3.72;;;17.60;85.10;;;;;;6121485;23;20002;-72
2021/06/17 10:41:58;;;;;;;5.78;4.45;;;17.70;85.20;;;;;;6120861;23;20048;-73
2021/06/17 10:44:56;;;;;;;8.30;7.32;;;17.70;85.30;;;;;;6122293;23;20434;-72
2021/06/17 10:47:48;;;;;;;14.70;12.45;;;17.70;85.40;;;;;;6120824;23;20013;-72
2021/06/17 10:51:07;;;;;;;9.52;7.38;;;17.70;85.40;;;;;;6120976;23;20005;-71
2021/06/17 10:53:39;;;;;;;7.20;5.53;;;17.70;85.50;;;;;;6102899;23;20033;-71
2021/06/17 10:56:59;;;;;;;7.38;5.47;;;17.70;85.70;;;;;;6121228;23;20009;-71
2021/06/17 10:59:32;;;;;;;8.27;5.55;;;17.60;85.70;;;;;;6120681;23;20013;-71
2021/06/17 11:02:25;;;;;;;5.78;4.95;;;17.60;85.90;;;;;;6122570;23;20010;-71
2021/06/17 11:08:35;;;;;;;10.13;5.18;;;17.60;86.10;;;;;;6120171;23;20085;-71
2021/06/17 11:11:30;;;;;;;5.80;4.38;;;17.60;86.20;;;;;;6119840;23;20006;-73
2021/06/17 11:14:20;;;;;;;7.10;4.43;;;17.60;86.30;;;;;;6120709;23;20092;-71
2021/06/17 11:17:06;;;;;;;5.50;4.32;;;17.50;86.40;;;;;;6124441;23;20329;-71
2021/06/17 11:20:06;;;;;;;10.00;4.30;;;17.50;86.50;;;;;;6125151;23;20006;-71
2021/06/17 11:22:39;;;;;;;4.88;4.43;;;17.50;86.80;;;;;;6124616;23;20014;-71
2021/06/17 11:25:18;;;;;;;8.60;5.53;;;17.50;87.00;;;;;;6123942;23;20006;-71
2021/06/17 11:28:37;;;;;;;9.13;6.90;;;17.50;87.20;;;;;;6124892;23;20013;-71
2021/06/17 11:31:39;;;;;;;7.88;5.60;;;17.50;87.40;;;;;;6124557;23;20002;-71
2021/06/17 11:34:31;;;;;;;7.22;6.05;;;17.50;87.70;;;;;;6123584;23;20090;-71
2021/06/17 11:37:37;;;;;;;8.85;5.78;;;17.50;87.80;;;;;;6100366;23;20330;-70
2021/06/17 11:40:43;;;;;;;6.72;5.32;;;17.40;87.90;;;;;;6124869;23;19998;-72
2021/06/17 11:43:49;;;;;;;8.00;5.30;;;17.40;88.00;;;;;;6124345;23;20006;-72
2021/06/17 11:46:58;;;;;;;7.15;5.80;;;17.40;88.10;;;;;;6124834;23;20002;-71
2021/06/17 11:50:04;;;;;;;11.07;5.70;;;17.40;88.20;;;;;;6125147;23;20005;-72
2021/06/17 11:52:38;;;;;;;7.28;4.93;;;17.40;88.40;;;;;;6122660;23;20006;-72
2021/06/17 11:55:44;;;;;;;6.75;5.55;;;17.40;88.50;;;;;;6123998;23;20077;-72
2021/06/17 11:58:50;;;;;;;8.25;4.85;;;17.40;88.70;;;;;;6124730;23;20025;-71
2021/06/17 12:01:56;;;;;;;8.20;4.35;;;17.40;88.90;;;;;;6124378;23;20014;-72
2021/06/17 12:04:23;;;;;;;4.70;3.40;;;17.40;89.70;;;;;;6123426;23;20020;-71
2021/06/17 12:07:29;;;;;;;5.25;3.28;;;17.40;89.20;;;;;;6125019;23;20013;-71
2021/06/17 12:10:17;;;;;;;;;;;17.40;89.20;;;;;;6124269;23;20485;-71
2021/06/17 12:12:52;;;;;;;6.43;3.22;;;17.40;89.40;;;;;;6119851;23;19911;-72
2021/06/17 12:15:58;;;;;;;4.45;3.17;;;17.40;89.50;;;;;;6124872;23;20005;-72
2021/06/17 12:19:04;;;;;;;5.53;3.15;;;17.40;89.50;;;;;;6122114;23;20085;-71
2021/06/17 12:22:11;;;;;;;4.47;2.20;;;17.40;89.70;;;;;;6123207;23;20014;-72
2021/06/17 12:25:17;;;;;;;6.63;2.90;;;17.40;89.80;;;;;;6124276;23;20006;-72
2021/06/17 12:27:45;;;;;;;5.55;2.90;;;17.40;90.00;;;;;;6121741;23;20009;-71
2021/06/17 12:31:07;;;;;;;5.05;3.08;;;17.40;90.00;;;;;;6120730;23;20005;-71
2021/06/17 12:34:13;;;;;;;3.97;2.47;;;17.40;90.10;;;;;;6123644;23;20068;-71
2021/06/17 12:37:19;;;;;;;6.43;2.67;;;17.40;90.10;;;;;;6122808;23;20127;-71
2021/06/17 12:40:26;;;;;;;6.90;2.88;;;17.40;90.10;;;;;;6122142;23;20077;-72
2021/06/17 12:43:04;;;;;;;5.32;3.05;;;17.40;90.10;;;;;;6121900;23;20014;-71
2021/06/17 12:45:50;;;;;;;5.75;3.63;;;17.40;90.10;;;;;;6121258;23;20009;-71
2021/06/17 12:54:23;;;;;;;3.83;3.22;;;17.40;90.20;;;;;;6122954;23;20065;-71
2021/06/17 12:57:36;;;;;;;4.95;3.67;;;17.40;90.20;;;;;;6121815;23;20481;-71
2021/06/17 13:00:11;;;;;;;4.85;4.45;;;17.40;90.30;;;;;;6120292;23;20386;-71
2021/06/17 13:02:43;;;;;;;7.63;5.00;;;17.40;90.30;;;;;;6122735;23;20023;-72
2021/06/17 13:05:55;;;;;;;6.10;4.57;;;17.40;90.40;;;;;;6121380;23;20002;-71
2021/06/17 13:08:23;;;;;;;7.25;4.30;;;17.40;90.40;;;;;;6121920;23;20033;-71
2021/06/17 13:11:17;;;;;;;6.03;4.00;;;17.40;90.50;;;;;;6123161;23;20005;-72
2021/06/17 13:14:23;;;;;;;5.40;4.47;;;17.40;90.80;;;;;;6119770;23;20342;-71
2021/06/17 13:17:03;;;;;;;12.13;5.82;;;17.40;90.60;;;;;;6122637;23;20371;-72
2021/06/17 13:19:29;;;;;;;5.50;4.60;;;17.40;90.60;;;;;;6122789;23;20029;-71
2021/06/17 13:22:22;;;;;;;7.90;5.10;;;17.50;90.70;;;;;;6120666;23;20013;-72
2021/06/17 13:25:16;;;;;;;4.68;3.85;;;17.40;90.70;;;;;;6122834;23;20013;-72
2021/06/17 13:27:42;;;;;;;6.78;3.25;;;17.40;90.70;;;;;;6119975;23;20010;-72
2021/06/17 13:30:48;;;;;;;5.35;3.58;;;17.40;90.70;;;;;;6122118;23;20005;-71
2021/06/17 13:33:17;;;;;;;3.95;3.58;;;17.50;90.80;;;;;;6122363;23;20081;-71
2021/06/17 13:36:23;;;;;;;3.72;3.42;;;17.40;90.80;;;;;;6095484;23;20021;-71
2021/06/17 13:39:29;;;;;;;3.75;3.45;;;17.50;90.80;;;;;;6121380;23;20002;-71
2021/06/17 13:41:56;;;;;;;7.18;3.45;;;17.50;90.80;;;;;;6122372;23;20014;-71
2021/06/17 13:45:02;;;;;;;5.07;4.10;;;17.40;90.80;;;;;;6121043;23;20002;-71
2021/06/17 13:47:29;;;;;;;5.97;4.15;;;17.50;90.80;;;;;;6121555;23;20025;-71
2021/06/17 13:50:35;;;;;;;4.65;4.05;;;17.40;90.80;;;;;;6122824;23;20394;-72
2021/06/17 13:53:02;;;;;;;5.15;3.95;;;17.50;90.80;;;;;;6120791;23;20045;-71
2021/06/17 13:55:28;;;;;;;4.93;3.13;;;17.40;90.80;;;;;;6122080;23;20006;-71
2021/06/17 13:58:34;;;;;;;5.32;2.58;;;17.40;90.70;;;;;;6121391;23;20002;-73
2021/06/17 14:01:03;;;;;;;3.30;2.50;;;17.40;90.70;;;;;;6121215;23;20346;-72
2021/06/17 14:03:30;;;;;;;6.60;3.95;;;17.40;90.70;;;;;;6122151;23;20002;-72
2021/06/17 14:06:36;;;;;;;5.30;3.10;;;17.40;90.70;;;;;;6119901;23;20009;-71
2021/06/17 14:09:42;;;;;;;6.80;3.65;;;17.40;90.70;;;;;;6120303;23;20018;-72
2021/06/17 14:12:09;;;;;;;3.53;3.17;;;17.40;90.70;;;;;;6122432;23;19998;-72
2021/06/17 14:14:37;;;;;;;8.27;3.63;;;17.40;90.70;;;;;;6118934;23;20029;-71
2021/06/17 14:17:43;;;;;;;4.35;3.30;;;17.40;90.70;;;;;;6122241;23;20426;-72
2021/06/17 14:20:15;;;;;;;5.97;3.17;;;17.40;90.70;;;;;;6121819;23;19998;-71
2021/06/17 14:22:42;;;;;;;7.78;3.38;;;17.40;90.70;;;;;;6119101;23;20045;-71
2021/06/17 14:25:10;;;;;;;4.45;2.80;;;17.40;90.70;;;;;;6122013;23;20022;-71